sensor_id;sensor_type;location;lat;lon;timestamp;P1;durP1;ratioP1;P2;durP2;ratioP2
39924;SDS011;25592;49.986;11.618;2022-09-23T00:01:41;3.75;;;1.58;;
39924;SDS011;25592;49.986;11.618;2022-09-23T00:04:27;1.70;;;1.10;;
39924;SDS011;25592;49.986;11.618;2022-09-23T00:07:13;2.20;;;1.10;;
39924;SDS011;25592;49.986;11.618;2022-09-23T00:09:58;2.47;;;1.10;;
39924;SDS011;25592;49.986;11.618;2022-09-23T00:12:44;3.58;;;1.40;;
39924;SDS011;25592;49.986;11.618;2022-09-23T00:15:29;3.63;;;1.35;;
39924;SDS011;25592;49.986;11.618;2022-09-23T00:18:14;2.67;;;1.30;;
39924;SDS011;25592;49.986;11.618;2022-09-23T00:21:05;2.40;;;1.40;;
39924;SDS011;25592;49.986;11.618;2022-09-23T00:23:53;2.03;;;1.13;;
39924;SDS011;25592;49.986;11.618;2022-09-23T00:26:38;3.03;;;1.42;;
39924;SDS011;25592;49.986;11.618;2022-09-23T00:29:24;3.35;;;1.30;;
39924;SDS011;25592;49.986;11.618;2022-09-23T00:32:09;2.60;;;1.20;;
39924;SDS011;25592;49.986;11.618;2022-09-23T00:34:54;2.70;;;1.30;;
39924;SDS011;25592;49.986;11.618;2022-09-23T00:37:40;5.43;;;1.30;;
39924;SDS011;25592;49.986;11.618;2022-09-23T00:40:25;3.30;;;1.70;;
39924;SDS011;25592;49.986;11.618;2022-09-23T00:43:14;2.40;;;1.40;;
39924;SDS011;25592;49.986;11.618;2022-09-23T00:45:59;3.20;;;1.50;;
39924;SDS011;25592;49.986;11.618;2022-09-23T00:48:45;3.05;;;1.63;;
39924;SDS011;25592;49.986;11.618;2022-09-23T00:51:37;3.88;;;2.13;;
39924;SDS011;25592;49.986;11.618;2022-09-23T00:54:25;2.67;;;1.30;;
39924;SDS011;25592;49.986;11.618;2022-09-23T00:57:13;2.50;;;1.30;;
39924;SDS011;25592;49.986;11.618;2022-09-23T01:00:01;5.18;;;1.45;;
39924;SDS011;25592;49.986;11.618;2022-09-23T01:02:48;3.17;;;1.40;;
39924;SDS011;25592;49.986;11.618;2022-09-23T01:05:33;2.45;;;0.98;;
39924;SDS011;25592;49.986;11.618;2022-09-23T01:08:20;3.78;;;1.40;;
39924;SDS011;25592;49.986;11.618;2022-09-23T01:11:18;2.20;;;1.30;;
39924;SDS011;25592;49.986;11.618;2022-09-23T01:26:57;5.80;;;1.58;;
39924;SDS011;25592;49.986;11.618;2022-09-23T01:36:17;2.90;;;1.30;;
39924;SDS011;25592;49.986;11.618;2022-09-23T01:39:10;4.25;;;1.48;;
39924;SDS011;25592;49.986;11.618;2022-09-23T01:42:16;2.90;;;1.30;;
39924;SDS011;25592;49.986;11.618;2022-09-23T01:45:15;4.15;;;1.50;;
39924;SDS011;25592;49.986;11.618;2022-09-23T01:48:40;1.98;;;1.05;;
39924;SDS011;25592;49.986;11.618;2022-09-23T01:51:38;5.43;;;1.85;;
39924;SDS011;25592;49.986;11.618;2022-09-23T01:54:29;4.57;;;1.35;;
39924;SDS011;25592;49.986;11.618;2022-09-23T01:57:24;2.72;;;1.35;;
39924;SDS011;25592;49.986;11.618;2022-09-23T02:00:19;2.35;;;1.48;;
39924;SDS011;25592;49.986;11.618;2022-09-23T02:03:08;2.25;;;1.20;;
39924;SDS011;25592;49.986;11.618;2022-09-23T02:06:03;3.25;;;1.40;;
39924;SDS011;25592;49.986;11.618;2022-09-23T02:09:10;2.30;;;1.15;;
39924;SDS011;25592;49.986;11.618;2022-09-23T02:12:01;2.92;;;1.27;;
39924;SDS011;25592;49.986;11.618;2022-09-23T02:15:01;2.40;;;1.08;;
39924;SDS011;25592;49.986;11.618;2022-09-23T02:17:51;4.30;;;1.30;;
39924;SDS011;25592;49.986;11.618;2022-09-23T02:20:40;2.45;;;1.50;;
39924;SDS011;25592;49.986;11.618;2022-09-23T02:23:29;2.15;;;1.20;;
39924;SDS011;25592;49.986;11.618;2022-09-23T02:29:32;2.75;;;1.45;;
39924;SDS011;25592;49.986;11.618;2022-09-23T02:35:53;2.95;;;1.55;;
39924;SDS011;25592;49.986;11.618;2022-09-23T02:38:48;2.67;;;1.20;;
39924;SDS011;25592;49.986;11.618;2022-09-23T02:41:53;2.88;;;1.50;;
39924;SDS011;25592;49.986;11.618;2022-09-23T02:44:43;3.80;;;1.63;;
39924;SDS011;25592;49.986;11.618;2022-09-23T02:47:29;2.45;;;1.42;;
39924;SDS011;25592;49.986;11.618;2022-09-23T02:50:19;3.83;;;1.30;;
39924;SDS011;25592;49.986;11.618;2022-09-23T02:53:04;2.63;;;1.13;;
39924;SDS011;25592;49.986;11.618;2022-09-23T02:55:51;3.28;;;1.52;;
39924;SDS011;25592;49.986;11.618;2022-09-23T02:58:36;3.15;;;1.52;;
39924;SDS011;25592;49.986;11.618;2022-09-23T03:04:28;2.63;;;1.30;;
39924;SDS011;25592;49.986;11.618;2022-09-23T03:07:17;5.50;;;1.40;;
39924;SDS011;25592;49.986;11.618;2022-09-23T03:10:20;3.75;;;1.67;;
39924;SDS011;25592;49.986;11.618;2022-09-23T03:13:22;2.60;;;1.40;;
39924;SDS011;25592;49.986;11.618;2022-09-23T03:16:27;2.22;;;1.45;;
39924;SDS011;25592;49.986;11.618;2022-09-23T03:19:26;3.05;;;1.30;;
39924;SDS011;25592;49.986;11.618;2022-09-23T03:22:23;2.55;;;1.55;;
39924;SDS011;25592;49.986;11.618;2022-09-23T03:25:15;3.65;;;1.70;;
39924;SDS011;25592;49.986;11.618;2022-09-23T03:28:03;2.85;;;1.38;;
39924;SDS011;25592;49.986;11.618;2022-09-23T03:30:52;2.78;;;1.27;;
39924;SDS011;25592;49.986;11.618;2022-09-23T03:33:41;2.80;;;1.48;;
39924;SDS011;25592;49.986;11.618;2022-09-23T03:36:42;2.55;;;1.45;;
39924;SDS011;25592;49.986;11.618;2022-09-23T03:39:41;2.70;;;1.40;;
39924;SDS011;25592;49.986;11.618;2022-09-23T03:42:30;2.53;;;1.55;;
39924;SDS011;25592;49.986;11.618;2022-09-23T03:45:20;3.30;;;1.67;;
39924;SDS011;25592;49.986;11.618;2022-09-23T03:48:10;2.75;;;1.42;;
39924;SDS011;25592;49.986;11.618;2022-09-23T03:50:55;4.13;;;1.73;;
39924;SDS011;25592;49.986;11.618;2022-09-23T03:53:41;3.97;;;1.42;;
39924;SDS011;25592;49.986;11.618;2022-09-23T03:56:26;2.85;;;1.40;;
39924;SDS011;25592;49.986;11.618;2022-09-23T03:59:11;3.67;;;1.75;;
39924;SDS011;25592;49.986;11.618;2022-09-23T04:01:59;2.60;;;1.50;;
39924;SDS011;25592;49.986;11.618;2022-09-23T04:04:44;5.07;;;1.60;;
39924;SDS011;25592;49.986;11.618;2022-09-23T04:07:30;3.47;;;1.70;;
39924;SDS011;25592;49.986;11.618;2022-09-23T04:10:16;4.10;;;1.70;;
39924;SDS011;25592;49.986;11.618;2022-09-23T04:13:01;4.15;;;1.40;;
39924;SDS011;25592;49.986;11.618;2022-09-23T04:15:48;3.10;;;1.60;;
39924;SDS011;25592;49.986;11.618;2022-09-23T04:18:33;3.88;;;1.77;;
39924;SDS011;25592;49.986;11.618;2022-09-23T04:21:19;3.13;;;1.50;;
39924;SDS011;25592;49.986;11.618;2022-09-23T04:24:04;3.65;;;2.10;;
39924;SDS011;25592;49.986;11.618;2022-09-23T04:26:51;3.78;;;1.70;;
39924;SDS011;25592;49.986;11.618;2022-09-23T04:29:37;4.32;;;2.05;;
39924;SDS011;25592;49.986;11.618;2022-09-23T04:32:22;2.45;;;1.58;;
39924;SDS011;25592;49.986;11.618;2022-09-23T04:35:08;3.35;;;1.88;;
39924;SDS011;25592;49.986;11.618;2022-09-23T04:37:53;8.98;;;2.60;;
39924;SDS011;25592;49.986;11.618;2022-09-23T04:40:38;2.35;;;1.27;;
39924;SDS011;25592;49.986;11.618;2022-09-23T04:43:24;3.22;;;1.60;;
39924;SDS011;25592;49.986;11.618;2022-09-23T04:46:10;3.70;;;1.70;;
39924;SDS011;25592;49.986;11.618;2022-09-23T04:48:56;3.88;;;1.70;;
39924;SDS011;25592;49.986;11.618;2022-09-23T04:51:42;6.22;;;2.20;;
39924;SDS011;25592;49.986;11.618;2022-09-23T04:54:27;3.78;;;1.63;;
39924;SDS011;25592;49.986;11.618;2022-09-23T04:57:13;2.55;;;1.52;;
39924;SDS011;25592;49.986;11.618;2022-09-23T04:59:58;3.92;;;1.65;;
39924;SDS011;25592;49.986;11.618;2022-09-23T05:02:44;11.80;;;10.63;;
39924;SDS011;25592;49.986;11.618;2022-09-23T05:05:31;3.92;;;1.60;;
39924;SDS011;25592;49.986;11.618;2022-09-23T05:08:17;4.13;;;1.50;;
39924;SDS011;25592;49.986;11.618;2022-09-23T05:11:02;3.45;;;1.83;;
39924;SDS011;25592;49.986;11.618;2022-09-23T05:13:49;6.47;;;3.28;;
39924;SDS011;25592;49.986;11.618;2022-09-23T05:16:36;3.72;;;1.88;;
39924;SDS011;25592;49.986;11.618;2022-09-23T05:19:21;4.13;;;1.83;;
39924;SDS011;25592;49.986;11.618;2022-09-23T05:22:06;3.90;;;1.80;;
39924;SDS011;25592;49.986;11.618;2022-09-23T05:24:52;5.30;;;2.20;;
39924;SDS011;25592;49.986;11.618;2022-09-23T05:27:37;3.80;;;1.80;;
39924;SDS011;25592;49.986;11.618;2022-09-23T05:30:22;3.13;;;1.65;;
39924;SDS011;25592;49.986;11.618;2022-09-23T05:33:08;4.35;;;1.52;;
39924;SDS011;25592;49.986;11.618;2022-09-23T05:35:53;3.50;;;2.08;;
39924;SDS011;25592;49.986;11.618;2022-09-23T05:38:39;3.70;;;2.25;;
39924;SDS011;25592;49.986;11.618;2022-09-23T05:41:24;3.30;;;2.05;;
39924;SDS011;25592;49.986;11.618;2022-09-23T05:44:10;5.65;;;2.13;;
39924;SDS011;25592;49.986;11.618;2022-09-23T05:46:55;4.28;;;1.70;;
39924;SDS011;25592;49.986;11.618;2022-09-23T05:49:41;4.40;;;1.90;;
39924;SDS011;25592;49.986;11.618;2022-09-23T05:52:43;6.13;;;1.80;;
39924;SDS011;25592;49.986;11.618;2022-09-23T05:55:30;2.90;;;1.83;;
39924;SDS011;25592;49.986;11.618;2022-09-23T05:58:15;3.25;;;1.88;;
39924;SDS011;25592;49.986;11.618;2022-09-23T06:01:06;4.63;;;1.65;;
39924;SDS011;25592;49.986;11.618;2022-09-23T06:03:56;3.97;;;2.20;;
39924;SDS011;25592;49.986;11.618;2022-09-23T06:06:42;3.95;;;2.10;;
39924;SDS011;25592;49.986;11.618;2022-09-23T06:09:27;5.32;;;1.90;;
39924;SDS011;25592;49.986;11.618;2022-09-23T06:12:19;3.33;;;1.80;;
39924;SDS011;25592;49.986;11.618;2022-09-23T06:15:05;6.00;;;1.90;;
39924;SDS011;25592;49.986;11.618;2022-09-23T06:17:51;3.30;;;1.90;;
39924;SDS011;25592;49.986;11.618;2022-09-23T06:20:36;4.65;;;2.28;;
39924;SDS011;25592;49.986;11.618;2022-09-23T06:23:22;7.50;;;3.22;;
39924;SDS011;25592;49.986;11.618;2022-09-23T06:26:11;4.82;;;2.67;;
39924;SDS011;25592;49.986;11.618;2022-09-23T06:28:58;6.05;;;2.40;;
39924;SDS011;25592;49.986;11.618;2022-09-23T06:31:47;3.40;;;2.10;;
39924;SDS011;25592;49.986;11.618;2022-09-23T06:34:33;4.80;;;2.28;;
39924;SDS011;25592;49.986;11.618;2022-09-23T06:37:34;7.18;;;2.92;;
39924;SDS011;25592;49.986;11.618;2022-09-23T06:40:20;7.38;;;3.10;;
39924;SDS011;25592;49.986;11.618;2022-09-23T06:43:06;5.95;;;3.00;;
39924;SDS011;25592;49.986;11.618;2022-09-23T06:45:52;8.55;;;3.85;;
39924;SDS011;25592;49.986;11.618;2022-09-23T06:48:38;7.35;;;2.78;;
39924;SDS011;25592;49.986;11.618;2022-09-23T06:51:30;4.63;;;2.70;;
39924;SDS011;25592;49.986;11.618;2022-09-23T06:54:15;6.18;;;2.72;;
39924;SDS011;25592;49.986;11.618;2022-09-23T06:57:01;5.57;;;3.00;;
39924;SDS011;25592;49.986;11.618;2022-09-23T06:59:46;7.82;;;3.15;;
39924;SDS011;25592;49.986;11.618;2022-09-23T07:02:31;7.00;;;3.22;;
39924;SDS011;25592;49.986;11.618;2022-09-23T07:05:17;8.98;;;4.05;;
39924;SDS011;25592;49.986;11.618;2022-09-23T07:08:05;10.52;;;4.35;;
39924;SDS011;25592;49.986;11.618;2022-09-23T07:10:52;8.88;;;4.15;;
39924;SDS011;25592;49.986;11.618;2022-09-23T07:13:41;9.63;;;5.15;;
39924;SDS011;25592;49.986;11.618;2022-09-23T07:16:26;6.20;;;3.03;;
39924;SDS011;25592;49.986;11.618;2022-09-23T07:19:12;6.30;;;2.78;;
39924;SDS011;25592;49.986;11.618;2022-09-23T07:21:57;4.93;;;2.70;;
39924;SDS011;25592;49.986;11.618;2022-09-23T07:24:43;6.60;;;3.30;;
39924;SDS011;25592;49.986;11.618;2022-09-23T07:27:30;6.05;;;3.35;;
39924;SDS011;25592;49.986;11.618;2022-09-23T07:30:17;4.88;;;3.20;;
39924;SDS011;25592;49.986;11.618;2022-09-23T07:33:08;22.85;;;5.43;;
39924;SDS011;25592;49.986;11.618;2022-09-23T07:36:15;6.32;;;3.15;;
39924;SDS011;25592;49.986;11.618;2022-09-23T07:39:02;5.72;;;3.40;;
39924;SDS011;25592;49.986;11.618;2022-09-23T07:41:47;8.02;;;3.33;;
39924;SDS011;25592;49.986;11.618;2022-09-23T07:44:33;7.60;;;3.30;;
39924;SDS011;25592;49.986;11.618;2022-09-23T07:47:18;27.08;;;4.72;;
39924;SDS011;25592;49.986;11.618;2022-09-23T07:50:04;6.82;;;3.35;;
39924;SDS011;25592;49.986;11.618;2022-09-23T07:52:51;5.68;;;3.65;;
39924;SDS011;25592;49.986;11.618;2022-09-23T07:55:36;5.32;;;3.28;;
39924;SDS011;25592;49.986;11.618;2022-09-23T07:58:22;4.78;;;2.90;;
39924;SDS011;25592;49.986;11.618;2022-09-23T08:01:08;8.77;;;3.35;;
39924;SDS011;25592;49.986;11.618;2022-09-23T08:03:58;7.20;;;3.75;;
39924;SDS011;25592;49.986;11.618;2022-09-23T08:06:49;10.52;;;3.60;;
39924;SDS011;25592;49.986;11.618;2022-09-23T08:09:40;5.90;;;3.65;;
39924;SDS011;25592;49.986;11.618;2022-09-23T08:12:27;6.63;;;3.80;;
39924;SDS011;25592;49.986;11.618;2022-09-23T08:15:13;7.40;;;3.78;;
39924;SDS011;25592;49.986;11.618;2022-09-23T08:18:00;9.68;;;4.03;;
39924;SDS011;25592;49.986;11.618;2022-09-23T08:20:46;9.77;;;3.03;;
39924;SDS011;25592;49.986;11.618;2022-09-23T08:23:32;6.60;;;3.88;;
39924;SDS011;25592;49.986;11.618;2022-09-23T08:26:17;7.93;;;3.70;;
39924;SDS011;25592;49.986;11.618;2022-09-23T08:29:05;6.22;;;3.53;;
39924;SDS011;25592;49.986;11.618;2022-09-23T08:31:53;4.38;;;3.10;;
39924;SDS011;25592;49.986;11.618;2022-09-23T08:34:39;7.93;;;3.00;;
39924;SDS011;25592;49.986;11.618;2022-09-23T08:37:24;5.43;;;2.80;;
39924;SDS011;25592;49.986;11.618;2022-09-23T08:40:09;6.80;;;3.20;;
39924;SDS011;25592;49.986;11.618;2022-09-23T08:42:55;4.57;;;2.90;;
39924;SDS011;25592;49.986;11.618;2022-09-23T08:45:40;4.63;;;2.55;;
39924;SDS011;25592;49.986;11.618;2022-09-23T08:48:29;4.70;;;2.92;;
39924;SDS011;25592;49.986;11.618;2022-09-23T08:51:28;4.60;;;2.50;;
39924;SDS011;25592;49.986;11.618;2022-09-23T08:54:22;4.72;;;3.00;;
39924;SDS011;25592;49.986;11.618;2022-09-23T08:57:24;4.38;;;2.78;;
39924;SDS011;25592;49.986;11.618;2022-09-23T09:01:02;4.28;;;2.78;;
39924;SDS011;25592;49.986;11.618;2022-09-23T09:03:55;6.00;;;3.60;;
39924;SDS011;25592;49.986;11.618;2022-09-23T09:06:42;4.85;;;2.90;;
39924;SDS011;25592;49.986;11.618;2022-09-23T09:10:09;5.10;;;2.63;;
39924;SDS011;25592;49.986;11.618;2022-09-23T09:13:05;4.47;;;2.58;;
39924;SDS011;25592;49.986;11.618;2022-09-23T09:16:14;4.18;;;2.30;;
39924;SDS011;25592;49.986;11.618;2022-09-23T09:22:51;3.80;;;2.13;;
39924;SDS011;25592;49.986;11.618;2022-09-23T09:28:38;4.18;;;2.15;;
39924;SDS011;25592;49.986;11.618;2022-09-23T09:31:31;4.75;;;2.25;;
39924;SDS011;25592;49.986;11.618;2022-09-23T09:34:32;5.63;;;2.20;;
39924;SDS011;25592;49.986;11.618;2022-09-23T09:37:23;5.05;;;2.65;;
39924;SDS011;25592;49.986;11.618;2022-09-23T09:40:24;4.30;;;2.30;;
39924;SDS011;25592;49.986;11.618;2022-09-23T09:43:10;4.18;;;2.00;;
39924;SDS011;25592;49.986;11.618;2022-09-23T09:49:34;6.95;;;2.03;;
39924;SDS011;25592;49.986;11.618;2022-09-23T09:52:25;2.40;;;1.60;;
39924;SDS011;25592;49.986;11.618;2022-09-23T09:55:22;3.10;;;1.67;;
39924;SDS011;25592;49.986;11.618;2022-09-23T09:58:12;4.22;;;1.50;;
39924;SDS011;25592;49.986;11.618;2022-09-23T10:01:00;4.30;;;1.50;;
39924;SDS011;25592;49.986;11.618;2022-09-23T10:03:46;2.72;;;1.50;;
39924;SDS011;25592;49.986;11.618;2022-09-23T10:06:35;2.85;;;1.40;;
39924;SDS011;25592;49.986;11.618;2022-09-23T10:09:21;2.53;;;1.40;;
39924;SDS011;25592;49.986;11.618;2022-09-23T10:12:19;2.78;;;1.60;;
39924;SDS011;25592;49.986;11.618;2022-09-23T10:15:10;2.78;;;1.40;;
39924;SDS011;25592;49.986;11.618;2022-09-23T10:18:18;4.68;;;1.50;;
39924;SDS011;25592;49.986;11.618;2022-09-23T10:21:16;2.90;;;1.50;;
39924;SDS011;25592;49.986;11.618;2022-09-23T10:24:16;2.55;;;1.20;;
39924;SDS011;25592;49.986;11.618;2022-09-23T10:27:07;2.60;;;1.25;;
39924;SDS011;25592;49.986;11.618;2022-09-23T10:29:56;3.15;;;1.60;;
39924;SDS011;25592;49.986;11.618;2022-09-23T10:32:43;2.28;;;1.40;;
39924;SDS011;25592;49.986;11.618;2022-09-23T10:35:29;2.53;;;1.42;;
39924;SDS011;25592;49.986;11.618;2022-09-23T10:38:17;3.83;;;1.25;;
39924;SDS011;25592;49.986;11.618;2022-09-23T10:41:02;2.05;;;1.10;;
39924;SDS011;25592;49.986;11.618;2022-09-23T10:44:18;2.22;;;1.30;;
39924;SDS011;25592;49.986;11.618;2022-09-23T10:47:35;2.50;;;1.35;;
39924;SDS011;25592;49.986;11.618;2022-09-23T10:50:36;4.25;;;1.45;;
39924;SDS011;25592;49.986;11.618;2022-09-23T10:59:35;1.90;;;1.05;;
39924;SDS011;25592;49.986;11.618;2022-09-23T11:05:31;2.13;;;1.13;;
39924;SDS011;25592;49.986;11.618;2022-09-23T11:18:16;2.33;;;1.33;;
39924;SDS011;25592;49.986;11.618;2022-09-23T11:37:13;2.65;;;1.40;;
39924;SDS011;25592;49.986;11.618;2022-09-23T11:40:11;2.72;;;1.35;;
39924;SDS011;25592;49.986;11.618;2022-09-23T11:43:19;2.45;;;1.40;;
39924;SDS011;25592;49.986;11.618;2022-09-23T11:46:32;1.70;;;1.20;;
39924;SDS011;25592;49.986;11.618;2022-09-23T11:49:34;5.38;;;1.45;;
39924;SDS011;25592;49.986;11.618;2022-09-23T11:52:26;1.70;;;1.10;;
39924;SDS011;25592;49.986;11.618;2022-09-23T11:58:12;3.42;;;1.25;;
39924;SDS011;25592;49.986;11.618;2022-09-23T12:01:15;2.15;;;1.40;;
39924;SDS011;25592;49.986;11.618;2022-09-23T12:04:26;2.88;;;1.33;;
39924;SDS011;25592;49.986;11.618;2022-09-23T12:07:17;1.67;;;1.00;;
39924;SDS011;25592;49.986;11.618;2022-09-23T12:10:06;2.25;;;1.13;;
39924;SDS011;25592;49.986;11.618;2022-09-23T12:12:54;1.98;;;1.02;;
39924;SDS011;25592;49.986;11.618;2022-09-23T12:25:26;1.95;;;1.10;;
39924;SDS011;25592;49.986;11.618;2022-09-23T12:28:32;2.75;;;1.20;;
39924;SDS011;25592;49.986;11.618;2022-09-23T12:31:28;1.55;;;1.13;;
39924;SDS011;25592;49.986;11.618;2022-09-23T12:34:23;2.17;;;1.20;;
39924;SDS011;25592;49.986;11.618;2022-09-23T12:37:25;1.92;;;1.20;;
39924;SDS011;25592;49.986;11.618;2022-09-23T12:40:21;2.60;;;1.23;;
39924;SDS011;25592;49.986;11.618;2022-09-23T12:46:17;2.45;;;1.20;;
39924;SDS011;25592;49.986;11.618;2022-09-23T12:49:05;2.17;;;1.08;;
39924;SDS011;25592;49.986;11.618;2022-09-23T12:54:55;2.47;;;1.30;;
39924;SDS011;25592;49.986;11.618;2022-09-23T12:57:41;3.80;;;1.50;;
39924;SDS011;25592;49.986;11.618;2022-09-23T13:00:26;5.63;;;1.90;;
39924;SDS011;25592;49.986;11.618;2022-09-23T13:03:18;2.90;;;1.03;;
39924;SDS011;25592;49.986;11.618;2022-09-23T13:06:29;3.13;;;1.33;;
39924;SDS011;25592;49.986;11.618;2022-09-23T13:09:28;1.98;;;1.20;;
39924;SDS011;25592;49.986;11.618;2022-09-23T13:12:17;2.55;;;1.02;;
39924;SDS011;25592;49.986;11.618;2022-09-23T13:15:22;2.05;;;1.00;;
39924;SDS011;25592;49.986;11.618;2022-09-23T13:21:14;1.40;;;0.90;;
39924;SDS011;25592;49.986;11.618;2022-09-23T13:27:04;1.92;;;1.10;;
39924;SDS011;25592;49.986;11.618;2022-09-23T13:29:59;2.08;;;1.00;;
39924;SDS011;25592;49.986;11.618;2022-09-23T13:35:55;1.73;;;1.00;;
39924;SDS011;25592;49.986;11.618;2022-09-23T13:38:45;2.10;;;1.10;;
39924;SDS011;25592;49.986;11.618;2022-09-23T13:41:30;2.13;;;1.20;;
39924;SDS011;25592;49.986;11.618;2022-09-23T13:44:16;2.88;;;1.13;;
39924;SDS011;25592;49.986;11.618;2022-09-23T13:47:04;2.03;;;1.17;;
39924;SDS011;25592;49.986;11.618;2022-09-23T13:49:49;1.95;;;1.10;;
39924;SDS011;25592;49.986;11.618;2022-09-23T13:52:35;2.03;;;1.08;;
39924;SDS011;25592;49.986;11.618;2022-09-23T13:55:38;2.35;;;1.23;;
39924;SDS011;25592;49.986;11.618;2022-09-23T13:58:27;2.40;;;1.10;;
39924;SDS011;25592;49.986;11.618;2022-09-23T14:01:28;2.28;;;1.02;;
39924;SDS011;25592;49.986;11.618;2022-09-23T14:04:25;2.25;;;1.10;;
39924;SDS011;25592;49.986;11.618;2022-09-23T14:07:13;1.60;;;1.00;;
39924;SDS011;25592;49.986;11.618;2022-09-23T14:12:49;2.42;;;1.38;;
39924;SDS011;25592;49.986;11.618;2022-09-23T14:15:36;2.45;;;1.17;;
39924;SDS011;25592;49.986;11.618;2022-09-23T14:18:32;1.98;;;1.20;;
39924;SDS011;25592;49.986;11.618;2022-09-23T14:21:25;2.03;;;1.10;;
39924;SDS011;25592;49.986;11.618;2022-09-23T14:24:15;2.08;;;1.05;;
39924;SDS011;25592;49.986;11.618;2022-09-23T14:29:50;2.33;;;1.20;;
39924;SDS011;25592;49.986;11.618;2022-09-23T14:32:36;2.00;;;1.00;;
39924;SDS011;25592;49.986;11.618;2022-09-23T14:35:24;2.35;;;1.15;;
39924;SDS011;25592;49.986;11.618;2022-09-23T14:38:25;2.83;;;1.20;;
39924;SDS011;25592;49.986;11.618;2022-09-23T14:41:35;2.08;;;1.00;;
39924;SDS011;25592;49.986;11.618;2022-09-23T14:44:22;2.60;;;1.00;;
39924;SDS011;25592;49.986;11.618;2022-09-23T14:47:10;1.73;;;1.13;;
39924;SDS011;25592;49.986;11.618;2022-09-23T14:49:58;1.90;;;1.15;;
39924;SDS011;25592;49.986;11.618;2022-09-23T14:53:03;3.83;;;1.40;;
39924;SDS011;25592;49.986;11.618;2022-09-23T14:58:54;1.92;;;1.10;;
39924;SDS011;25592;49.986;11.618;2022-09-23T15:01:43;3.85;;;1.20;;
39924;SDS011;25592;49.986;11.618;2022-09-23T15:04:29;2.25;;;1.38;;
39924;SDS011;25592;49.986;11.618;2022-09-23T15:07:16;2.17;;;1.20;;
39924;SDS011;25592;49.986;11.618;2022-09-23T15:10:17;2.60;;;1.48;;
39924;SDS011;25592;49.986;11.618;2022-09-23T15:13:28;2.08;;;1.10;;
39924;SDS011;25592;49.986;11.618;2022-09-23T15:16:16;3.00;;;1.15;;
39924;SDS011;25592;49.986;11.618;2022-09-23T15:19:14;1.98;;;1.10;;
39924;SDS011;25592;49.986;11.618;2022-09-23T15:22:05;2.58;;;1.50;;
39924;SDS011;25592;49.986;11.618;2022-09-23T15:24:52;2.33;;;1.00;;
39924;SDS011;25592;49.986;11.618;2022-09-23T15:31:14;1.83;;;1.00;;
39924;SDS011;25592;49.986;11.618;2022-09-23T15:34:00;3.05;;;1.02;;
39924;SDS011;25592;49.986;11.618;2022-09-23T15:36:46;2.60;;;1.27;;
39924;SDS011;25592;49.986;11.618;2022-09-23T15:39:32;2.60;;;1.33;;
39924;SDS011;25592;49.986;11.618;2022-09-23T15:42:20;2.15;;;1.27;;
39924;SDS011;25592;49.986;11.618;2022-09-23T15:45:06;4.57;;;1.45;;
39924;SDS011;25592;49.986;11.618;2022-09-23T15:47:54;2.33;;;1.40;;
39924;SDS011;25592;49.986;11.618;2022-09-23T15:50:44;2.47;;;1.13;;
39924;SDS011;25592;49.986;11.618;2022-09-23T15:53:30;2.83;;;1.10;;
39924;SDS011;25592;49.986;11.618;2022-09-23T15:56:15;3.28;;;1.63;;
39924;SDS011;25592;49.986;11.618;2022-09-23T15:59:01;3.83;;;1.33;;
39924;SDS011;25592;49.986;11.618;2022-09-23T16:01:47;3.80;;;1.45;;
39924;SDS011;25592;49.986;11.618;2022-09-23T16:04:32;4.13;;;1.70;;
39924;SDS011;25592;49.986;11.618;2022-09-23T16:07:17;2.80;;;1.50;;
39924;SDS011;25592;49.986;11.618;2022-09-23T16:10:03;2.85;;;1.48;;
39924;SDS011;25592;49.986;11.618;2022-09-23T16:12:48;3.92;;;1.48;;
39924;SDS011;25592;49.986;11.618;2022-09-23T16:15:37;3.47;;;1.60;;
39924;SDS011;25592;49.986;11.618;2022-09-23T16:18:23;3.50;;;1.80;;
39924;SDS011;25592;49.986;11.618;2022-09-23T16:21:12;4.78;;;1.52;;
39924;SDS011;25592;49.986;11.618;2022-09-23T16:24:00;5.82;;;1.58;;
39924;SDS011;25592;49.986;11.618;2022-09-23T16:26:45;2.78;;;1.40;;
39924;SDS011;25592;49.986;11.618;2022-09-23T16:29:31;2.40;;;1.25;;
39924;SDS011;25592;49.986;11.618;2022-09-23T16:32:17;2.17;;;1.30;;
39924;SDS011;25592;49.986;11.618;2022-09-23T16:35:06;2.33;;;1.13;;
39924;SDS011;25592;49.986;11.618;2022-09-23T16:37:52;4.50;;;1.35;;
39924;SDS011;25592;49.986;11.618;2022-09-23T16:40:37;3.60;;;1.30;;
39924;SDS011;25592;49.986;11.618;2022-09-23T16:43:28;1.60;;;1.20;;
39924;SDS011;25592;49.986;11.618;2022-09-23T16:46:23;1.83;;;1.00;;
39924;SDS011;25592;49.986;11.618;2022-09-23T16:49:08;1.58;;;1.00;;
39924;SDS011;25592;49.986;11.618;2022-09-23T16:51:57;2.53;;;1.48;;
39924;SDS011;25592;49.986;11.618;2022-09-23T16:54:45;2.47;;;1.27;;
39924;SDS011;25592;49.986;11.618;2022-09-23T16:57:32;1.67;;;0.90;;
39924;SDS011;25592;49.986;11.618;2022-09-23T17:00:17;2.33;;;1.25;;
39924;SDS011;25592;49.986;11.618;2022-09-23T17:03:21;2.17;;;1.25;;
39924;SDS011;25592;49.986;11.618;2022-09-23T17:06:24;2.88;;;1.15;;
39924;SDS011;25592;49.986;11.618;2022-09-23T17:09:11;2.95;;;1.33;;
39924;SDS011;25592;49.986;11.618;2022-09-23T17:12:00;2.08;;;0.90;;
39924;SDS011;25592;49.986;11.618;2022-09-23T17:15:10;3.78;;;1.17;;
39924;SDS011;25592;49.986;11.618;2022-09-23T17:17:56;2.20;;;1.20;;
39924;SDS011;25592;49.986;11.618;2022-09-23T17:20:41;2.05;;;1.15;;
39924;SDS011;25592;49.986;11.618;2022-09-23T17:23:27;2.70;;;1.25;;
39924;SDS011;25592;49.986;11.618;2022-09-23T17:26:14;2.17;;;1.10;;
39924;SDS011;25592;49.986;11.618;2022-09-23T17:29:00;2.70;;;1.00;;
39924;SDS011;25592;49.986;11.618;2022-09-23T17:31:45;2.60;;;1.20;;
39924;SDS011;25592;49.986;11.618;2022-09-23T17:34:31;3.50;;;1.38;;
39924;SDS011;25592;49.986;11.618;2022-09-23T17:37:17;1.83;;;1.13;;
39924;SDS011;25592;49.986;11.618;2022-09-23T17:40:03;2.10;;;1.20;;
39924;SDS011;25592;49.986;11.618;2022-09-23T17:42:49;2.50;;;1.05;;
39924;SDS011;25592;49.986;11.618;2022-09-23T17:45:37;2.90;;;1.42;;
39924;SDS011;25592;49.986;11.618;2022-09-23T17:48:22;2.55;;;1.30;;
39924;SDS011;25592;49.986;11.618;2022-09-23T17:51:13;2.70;;;1.17;;
39924;SDS011;25592;49.986;11.618;2022-09-23T17:54:00;3.10;;;1.50;;
39924;SDS011;25592;49.986;11.618;2022-09-23T17:56:45;3.55;;;1.40;;
39924;SDS011;25592;49.986;11.618;2022-09-23T17:59:31;3.92;;;1.20;;
39924;SDS011;25592;49.986;11.618;2022-09-23T18:02:16;3.03;;;1.20;;
39924;SDS011;25592;49.986;11.618;2022-09-23T18:05:03;2.30;;;1.48;;
39924;SDS011;25592;49.986;11.618;2022-09-23T18:07:49;3.95;;;1.40;;
39924;SDS011;25592;49.986;11.618;2022-09-23T18:10:34;2.33;;;1.40;;
39924;SDS011;25592;49.986;11.618;2022-09-23T18:13:19;2.80;;;1.40;;
39924;SDS011;25592;49.986;11.618;2022-09-23T18:16:05;1.85;;;1.10;;
39924;SDS011;25592;49.986;11.618;2022-09-23T18:18:51;2.83;;;1.40;;
39924;SDS011;25592;49.986;11.618;2022-09-23T18:21:41;2.75;;;1.38;;
39924;SDS011;25592;49.986;11.618;2022-09-23T18:24:28;3.17;;;1.73;;
39924;SDS011;25592;49.986;11.618;2022-09-23T18:27:17;3.25;;;1.77;;
39924;SDS011;25592;49.986;11.618;2022-09-23T18:30:03;4.93;;;1.90;;
39924;SDS011;25592;49.986;11.618;2022-09-23T18:32:49;2.22;;;1.38;;
39924;SDS011;25592;49.986;11.618;2022-09-23T18:35:35;3.38;;;1.85;;
39924;SDS011;25592;49.986;11.618;2022-09-23T18:38:20;6.30;;;1.50;;
39924;SDS011;25592;49.986;11.618;2022-09-23T18:41:05;5.90;;;1.88;;
39924;SDS011;25592;49.986;11.618;2022-09-23T18:43:51;4.55;;;2.50;;